createdAt,value
2018-02-11T00:02:26.188Z,5.30
2018-02-11T00:04:55.228Z,5.30
2018-02-11T00:07:24.250Z,5.30
2018-02-11T00:09:54.059Z,5.30
2018-02-11T00:12:23.828Z,5.30
2018-02-11T00:14:52.872Z,5.30
2018-02-11T00:17:21.892Z,5.30
2018-02-11T00:19:50.937Z,5.30
2018-02-11T00:22:19.942Z,5.30
2018-02-11T00:24:49.756Z,5.30
2018-02-11T00:27:19.528Z,5.30
2018-02-11T00:29:48.574Z,5.30
2018-02-11T00:32:17.592Z,5.30
2018-02-11T00:34:46.628Z,5.30
2018-02-11T00:37:15.646Z,5.30
2018-02-11T00:39:45.450Z,5.30
2018-02-11T00:42:15.222Z,5.30
2018-02-11T00:44:44.293Z,5.30
2018-02-11T00:47:13.299Z,5.30
2018-02-11T00:49:42.304Z,5.30
2018-02-11T00:52:11.340Z,5.30
2018-02-11T00:54:41.146Z,5.20
2018-02-11T00:57:10.926Z,5.20
2018-02-11T00:59:39.963Z,5.10
2018-02-11T01:02:08.968Z,5.20
2018-02-11T01:04:38.026Z,5.20
2018-02-11T01:07:07.033Z,5.20
2018-02-11T01:09:36.893Z,5.20
2018-02-11T01:12:06.667Z,5.20
2018-02-11T01:14:35.676Z,5.20
2018-02-11T01:17:04.683Z,5.20
2018-02-11T01:19:33.736Z,5.20
2018-02-11T01:22:03.504Z,5.20
2018-02-11T01:24:32.557Z,5.20
2018-02-11T01:27:01.577Z,5.20
2018-02-11T01:29:30.612Z,5.20
2018-02-11T01:31:59.625Z,5.20
2018-02-11T01:34:29.428Z,5.10
2018-02-11T01:36:59.201Z,5.20
2018-02-11T01:39:28.240Z,5.10
2018-02-11T01:41:58.016Z,5.10
2018-02-11T01:44:27.065Z,5.10
2018-02-11T01:46:56.076Z,5.10
2018-02-11T01:49:25.080Z,5.10
2018-02-11T01:51:54.125Z,5.10
2018-02-11T01:54:23.900Z,5.10
2018-02-11T01:56:52.944Z,5.00
2018-02-11T01:59:21.948Z,5.10
2018-02-11T02:01:51.008Z,5.00
2018-02-11T02:04:20.784Z,5.00
2018-02-11T02:06:49.816Z,5.00
2018-02-11T02:09:19.601Z,5.00
2018-02-11T02:11:48.646Z,5.00
2018-02-11T02:14:17.671Z,5.00
2018-02-11T02:16:46.711Z,5.00
2018-02-11T02:19:16.493Z,5.00
2018-02-11T02:21:45.539Z,5.00
2018-02-11T02:24:14.558Z,5.00
2018-02-11T02:26:43.606Z,5.00
2018-02-11T02:29:13.386Z,5.00
2018-02-11T02:31:42.422Z,5.00
2018-02-11T02:34:11.433Z,5.00
2018-02-11T02:36:40.482Z,5.00
2018-02-11T02:39:09.493Z,5.00
2018-02-11T02:41:39.288Z,5.00
2018-02-11T02:44:09.106Z,5.00
2018-02-11T02:46:38.131Z,4.90
2018-02-11T02:49:07.141Z,5.00
2018-02-11T02:51:36.186Z,5.00
2018-02-11T02:54:05.960Z,5.10
2018-02-11T02:56:35.104Z,5.00
2018-02-11T02:59:04.878Z,5.00
2018-02-11T03:01:33.921Z,5.00
2018-02-11T03:04:02.936Z,5.00
2018-02-11T03:06:31.972Z,4.90
2018-02-11T03:09:01.013Z,4.90
2018-02-11T03:11:30.046Z,4.80
2018-02-11T03:13:59.087Z,4.80
2018-02-11T03:16:28.107Z,4.80
2018-02-11T03:18:57.180Z,4.70
2018-02-11T03:21:26.202Z,4.70
2018-02-11T03:23:55.209Z,4.70
2018-02-11T03:26:24.332Z,4.70
2018-02-11T03:28:54.104Z,4.80
2018-02-11T03:31:23.113Z,4.70
2018-02-11T03:33:52.169Z,4.80
2018-02-11T03:36:21.213Z,4.90
2018-02-11T03:38:50.226Z,4.90
2018-02-11T03:41:20.053Z,5.00
2018-02-11T03:43:49.064Z,4.90
2018-02-11T03:46:18.082Z,5.00
2018-02-11T03:48:47.169Z,5.00
2018-02-11T03:51:16.179Z,5.00
2018-02-11T03:53:45.201Z,5.00
2018-02-11T03:56:15.006Z,5.00
2018-02-11T03:58:44.018Z,4.90
2018-02-11T04:01:13.829Z,4.90
2018-02-11T04:03:43.619Z,5.00
2018-02-11T04:06:12.693Z,4.90
2018-02-11T04:08:41.704Z,4.90
2018-02-11T04:11:10.720Z,4.90
2018-02-11T04:13:40.521Z,4.90
2018-02-11T04:16:10.292Z,4.80
2018-02-11T04:18:39.339Z,4.80
2018-02-11T04:21:09.127Z,4.60
2018-02-11T04:23:38.156Z,4.60
2018-02-11T04:26:07.169Z,4.60
2018-02-11T04:28:36.212Z,4.50
2018-02-11T04:31:05.989Z,4.30
2018-02-11T04:33:35.034Z,4.30
2018-02-11T04:36:04.814Z,4.10
2018-02-11T04:38:33.864Z,4.10
2018-02-11T04:41:02.879Z,4.10
2018-02-11T04:43:32.319Z,4.00
2018-02-11T04:46:02.092Z,3.90
2018-02-11T04:48:31.135Z,3.90
2018-02-11T04:51:00.149Z,3.90
2018-02-11T04:53:29.157Z,3.90
2018-02-11T04:55:58.214Z,3.90
2018-02-11T04:58:28.025Z,3.90
2018-02-11T05:00:57.808Z,3.80
2018-02-11T05:03:26.855Z,3.80
2018-02-11T05:05:55.865Z,3.80
2018-02-11T05:08:24.913Z,3.80
2018-02-11T05:10:54.695Z,3.70
2018-02-11T05:13:23.741Z,3.70
2018-02-11T05:15:52.747Z,3.70
2018-02-11T05:18:21.798Z,3.80
2018-02-11T05:20:51.578Z,3.80
2018-02-11T05:23:20.621Z,3.70
2018-02-11T05:25:49.633Z,3.70
2018-02-11T05:28:18.690Z,3.70
2018-02-11T05:30:49.245Z,3.80
2018-02-11T05:33:18.293Z,3.80
2018-02-11T05:35:47.315Z,3.90
2018-02-11T05:38:17.125Z,4.00
2018-02-11T05:40:46.902Z,4.00
2018-02-11T05:43:15.938Z,3.90
2018-02-11T05:45:45.713Z,3.90
2018-02-11T05:48:14.754Z,3.90
2018-02-11T05:50:43.751Z,3.90
2018-02-11T05:53:12.802Z,3.90
2018-02-11T05:55:41.800Z,3.90
2018-02-11T05:58:10.847Z,4.00
2018-02-11T06:00:39.849Z,4.00
2018-02-11T06:03:08.882Z,4.00
2018-02-11T06:05:37.890Z,4.00
2018-02-11T06:08:07.697Z,4.00
2018-02-11T06:10:36.691Z,3.90
2018-02-11T06:13:06.491Z,4.00
2018-02-11T06:15:35.506Z,4.00
2018-02-11T06:18:05.307Z,4.10
2018-02-11T06:20:35.088Z,4.10
2018-02-11T06:23:04.133Z,4.00
2018-02-11T06:25:33.157Z,4.10
2018-02-11T06:28:02.205Z,4.10
2018-02-11T06:30:31.978Z,4.00
2018-02-11T06:33:01.017Z,3.90
2018-02-11T06:35:30.794Z,3.90
2018-02-11T06:37:59.835Z,3.80
2018-02-11T06:40:28.836Z,3.90
2018-02-11T06:42:57.874Z,3.90
2018-02-11T06:45:26.881Z,3.90
2018-02-11T06:47:55.962Z,4.00
2018-02-11T06:50:24.963Z,3.90
2018-02-11T06:52:53.973Z,3.90
2018-02-11T06:55:23.786Z,3.80
2018-02-11T06:57:53.597Z,3.90
2018-02-11T07:00:23.374Z,3.90
2018-02-11T07:02:52.440Z,3.80
2018-02-11T07:05:21.451Z,3.80
2018-02-11T07:07:50.452Z,3.90
2018-02-11T07:10:19.502Z,3.90
2018-02-11T07:12:48.505Z,4.00
2018-02-11T07:15:17.556Z,4.00
2018-02-11T07:17:46.590Z,4.10
2018-02-11T07:20:16.374Z,4.20
2018-02-11T07:22:46.141Z,4.20
2018-02-11T07:25:15.221Z,4.20
2018-02-11T07:27:44.220Z,4.30
2018-02-11T07:30:13.276Z,4.40
2018-02-11T07:32:43.050Z,4.40
2018-02-11T07:35:12.078Z,4.40
2018-02-11T07:37:41.845Z,4.50
2018-02-11T07:40:10.872Z,4.50
2018-02-11T07:42:40.646Z,4.60
2018-02-11T07:45:09.722Z,4.50
2018-02-11T07:47:38.757Z,4.60
2018-02-11T07:50:07.749Z,4.60
2018-02-11T07:52:36.878Z,4.50
2018-02-11T07:55:06.696Z,4.50
2018-02-11T07:57:35.696Z,4.50
2018-02-11T08:00:04.741Z,4.60
2018-02-11T08:02:33.750Z,4.70
2018-02-11T08:05:02.781Z,4.80
2018-02-11T08:07:31.788Z,4.80
2018-02-11T08:10:00.822Z,4.80
2018-02-11T08:12:29.817Z,4.90
2018-02-11T08:14:58.858Z,4.90
2018-02-11T08:17:27.872Z,5.00
2018-02-11T08:19:56.912Z,5.10
2018-02-11T08:22:26.686Z,5.40
2018-02-11T08:24:55.731Z,5.40
2018-02-11T08:27:24.733Z,5.50
2018-02-11T08:29:53.773Z,5.50
2018-02-11T08:32:22.782Z,5.50
2018-02-11T08:34:52.076Z,5.40
2018-02-11T08:37:21.090Z,5.40
2018-02-11T08:39:50.858Z,5.50
2018-02-11T08:42:19.927Z,5.50
2018-02-11T08:44:48.929Z,5.50
2018-02-11T08:47:17.929Z,5.50
2018-02-11T08:49:46.987Z,5.40
2018-02-11T08:52:16.756Z,5.30
2018-02-11T08:54:45.761Z,5.20
2018-02-11T08:57:14.797Z,5.30
2018-02-11T08:59:43.805Z,5.40
2018-02-11T09:02:12.839Z,5.60
2018-02-11T09:04:41.847Z,5.60
2018-02-11T09:07:10.885Z,5.60
2018-02-11T09:09:39.885Z,5.70
2018-02-11T09:12:08.889Z,5.80
2018-02-11T09:14:37.930Z,6.00
2018-02-11T09:17:07.707Z,6.30
2018-02-11T09:19:36.703Z,6.30
2018-02-11T09:22:07.037Z,6.50
2018-02-11T09:24:36.039Z,6.50
2018-02-11T09:27:05.036Z,6.50
2018-02-11T09:29:34.842Z,6.40
2018-02-11T09:32:04.011Z,6.40
2018-02-11T09:34:33.013Z,6.30
2018-02-11T09:37:02.022Z,6.30
2018-02-11T09:39:31.049Z,6.30
2018-02-11T09:42:00.172Z,6.30
2018-02-11T09:44:29.173Z,6.40
2018-02-11T09:46:58.172Z,6.40
2018-02-11T09:49:27.230Z,6.40
2018-02-11T09:51:56.242Z,6.50
2018-02-11T09:54:25.245Z,6.40
2018-02-11T09:56:54.282Z,6.30
2018-02-11T09:59:24.082Z,6.00
2018-02-11T10:01:53.117Z,5.90
2018-02-11T10:04:22.150Z,6.00
2018-02-11T10:06:51.153Z,6.00
2018-02-11T10:09:20.307Z,6.20
2018-02-11T10:11:49.304Z,6.30
2018-02-11T10:14:18.296Z,6.40
2018-02-11T10:16:47.331Z,6.40
2018-02-11T10:19:16.342Z,6.40
2018-02-11T10:21:46.143Z,6.10
2018-02-11T10:24:15.912Z,6.00
2018-02-11T10:26:44.926Z,5.90
2018-02-11T10:29:13.968Z,5.90
2018-02-11T10:31:43.014Z,5.90
2018-02-11T10:34:12.028Z,6.00
2018-02-11T10:36:41.096Z,6.10
2018-02-11T10:39:10.106Z,6.10
2018-02-11T10:41:39.122Z,6.20
2018-02-11T10:44:08.974Z,6.40
2018-02-11T10:46:37.989Z,6.40
2018-02-11T10:49:07.007Z,6.60
2018-02-11T10:51:36.045Z,6.80
2018-02-11T10:54:05.088Z,7.00
2018-02-11T10:56:34.088Z,7.20
2018-02-11T10:59:03.896Z,7.60
2018-02-11T11:01:32.913Z,7.60
2018-02-11T11:04:01.958Z,7.70
2018-02-11T11:06:30.977Z,8.10
2018-02-11T11:09:00.026Z,9.00
2018-02-11T11:11:29.043Z,10.00
2018-02-11T11:13:58.124Z,10.10
2018-02-11T11:16:27.141Z,10.10
2018-02-11T11:18:56.159Z,10.10
2018-02-11T11:21:25.974Z,9.50
2018-02-11T11:23:55.790Z,9.50
2018-02-11T11:26:25.683Z,9.50
2018-02-11T11:28:54.690Z,9.40
2018-02-11T11:31:24.524Z,9.40
2018-02-11T11:33:53.555Z,9.30
2018-02-11T11:36:22.558Z,9.30
2018-02-11T11:38:51.599Z,9.30
2018-02-11T11:41:20.602Z,9.50
2018-02-11T11:43:49.627Z,9.60
2018-02-11T11:46:18.646Z,9.70
2018-02-11T11:48:47.668Z,9.80
2018-02-11T11:51:16.665Z,9.70
2018-02-11T11:53:45.705Z,9.50
2018-02-11T11:56:14.708Z,9.50
2018-02-11T11:58:43.740Z,9.30
2018-02-11T12:01:12.750Z,9.30
2018-02-11T12:03:41.781Z,9.30
2018-02-11T12:06:10.801Z,9.10
2018-02-11T12:08:40.625Z,9.40
2018-02-11T12:11:10.393Z,9.60
2018-02-11T12:13:39.438Z,9.50
2018-02-11T12:16:08.441Z,9.80
2018-02-11T12:18:37.481Z,10.10
2018-02-11T12:21:06.492Z,10.00
2018-02-11T12:23:35.535Z,9.80
2018-02-11T12:26:04.535Z,9.60
2018-02-11T12:28:33.574Z,9.40
2018-02-11T12:31:02.582Z,9.30
2018-02-11T12:33:31.634Z,9.10
2018-02-11T12:36:00.638Z,9.00
2018-02-11T12:38:29.691Z,8.90
2018-02-11T12:40:58.691Z,8.80
2018-02-11T12:43:27.739Z,8.70
2018-02-11T12:45:57.512Z,8.70
2018-02-11T12:48:26.552Z,8.70
2018-02-11T12:50:56.329Z,8.70
2018-02-11T12:53:25.367Z,8.60
2018-02-11T12:55:54.409Z,8.70
2018-02-11T12:58:23.421Z,8.80
2018-02-11T13:00:52.457Z,8.70
2018-02-11T13:03:21.470Z,8.70
2018-02-11T13:05:50.546Z,8.70
2018-02-11T13:08:19.549Z,8.70
2018-02-11T13:10:48.553Z,8.60
2018-02-11T13:13:17.621Z,8.40
2018-02-11T13:15:46.625Z,8.40
2018-02-11T13:18:15.642Z,8.30
2018-02-11T13:20:44.719Z,8.30
2018-02-11T13:23:13.759Z,8.30
2018-02-11T13:25:42.736Z,8.30
2018-02-11T13:28:11.805Z,8.30
2018-02-11T13:30:40.809Z,8.20
2018-02-11T13:33:09.821Z,8.20
2018-02-11T13:35:38.854Z,8.20
2018-02-11T13:38:07.914Z,8.10
2018-02-11T13:40:36.950Z,8.00
2018-02-11T13:43:05.958Z,8.00
2018-02-11T13:45:34.969Z,7.90
2018-02-11T13:48:04.057Z,7.80
2018-02-11T13:50:33.057Z,7.80
2018-02-11T13:53:02.074Z,7.90
2018-02-11T13:55:31.118Z,7.80
2018-02-11T13:58:00.121Z,7.80
2018-02-11T14:00:29.157Z,7.80
2018-02-11T14:02:58.170Z,7.90
2018-02-11T14:05:28.349Z,7.90
2018-02-11T14:07:57.350Z,7.90
2018-02-11T14:10:26.353Z,8.00
2018-02-11T14:12:55.424Z,8.00
2018-02-11T14:15:24.428Z,8.00
2018-02-11T14:17:53.429Z,7.90
2018-02-11T14:20:22.773Z,8.00
2018-02-11T14:22:51.767Z,8.00
2018-02-11T14:25:20.782Z,8.00
2018-02-11T14:27:49.846Z,7.90
2018-02-11T14:30:19.612Z,8.00
2018-02-11T14:32:48.625Z,7.90
2018-02-11T14:35:17.665Z,8.00
2018-02-11T14:37:46.714Z,7.90
2018-02-11T14:40:15.722Z,7.90
2018-02-11T14:42:45.537Z,7.80
2018-02-11T14:45:15.304Z,7.80
2018-02-11T14:47:44.317Z,7.70
2018-02-11T14:50:13.382Z,7.70
2018-02-11T14:52:42.394Z,7.60
2018-02-11T14:55:11.390Z,7.60
2018-02-11T14:57:40.425Z,7.70
2018-02-11T15:00:10.221Z,7.70
2018-02-11T15:02:39.997Z,7.80
2018-02-11T15:05:09.057Z,7.70
2018-02-11T15:07:38.060Z,7.80
2018-02-11T15:10:07.060Z,7.90
2018-02-11T15:12:36.128Z,8.00
2018-02-11T15:15:05.139Z,8.00
2018-02-11T15:17:34.150Z,8.10
2018-02-11T15:20:03.216Z,8.10
2018-02-11T15:22:32.212Z,8.00
2018-02-11T15:25:01.237Z,7.90
2018-02-11T15:27:30.325Z,7.90
2018-02-11T15:29:59.338Z,7.90
2018-02-11T15:32:28.345Z,7.90
2018-02-11T15:34:57.389Z,7.90
2018-02-11T15:37:26.437Z,7.90
2018-02-11T15:39:56.205Z,7.90
2018-02-11T15:42:25.312Z,7.80
2018-02-11T15:44:54.325Z,7.90
2018-02-11T15:47:23.326Z,7.90
2018-02-11T15:49:52.372Z,7.70
2018-02-11T15:52:21.384Z,7.60
2018-02-11T15:54:50.386Z,7.60
2018-02-11T15:57:19.424Z,7.40
2018-02-11T15:59:48.435Z,7.50
2018-02-11T16:02:17.474Z,7.50
2018-02-11T16:04:46.485Z,7.40
2018-02-11T16:07:16.284Z,7.20
2018-02-11T16:09:45.272Z,7.20
2018-02-11T16:12:14.318Z,7.20
2018-02-11T16:14:43.417Z,7.30
2018-02-11T16:17:12.379Z,7.40
2018-02-11T16:19:41.419Z,7.40
2018-02-11T16:22:10.431Z,7.40
2018-02-11T16:24:39.462Z,7.40
2018-02-11T16:27:09.233Z,7.40
2018-02-11T16:29:38.289Z,7.40
2018-02-11T16:32:07.290Z,7.40
2018-02-11T16:34:36.325Z,7.30
2018-02-11T16:37:05.325Z,7.30
2018-02-11T16:39:34.362Z,7.20
2018-02-11T16:42:03.361Z,7.30
2018-02-11T16:44:32.423Z,7.20
2018-02-11T16:47:02.203Z,7.10
2018-02-11T16:49:31.195Z,7.00
2018-02-11T16:52:00.233Z,7.00
2018-02-11T16:54:29.236Z,7.00
2018-02-11T16:56:58.276Z,6.90
2018-02-11T16:59:27.286Z,7.00
2018-02-11T17:01:56.331Z,7.00
2018-02-11T17:04:25.341Z,7.00
2018-02-11T17:06:54.397Z,7.10
2018-02-11T17:09:23.410Z,7.10
2018-02-11T17:11:52.459Z,7.20
2018-02-11T17:14:22.233Z,7.20
2018-02-11T17:16:51.265Z,7.10
2018-02-11T17:19:20.271Z,7.20
2018-02-11T17:21:50.078Z,7.20
2018-02-11T17:24:19.842Z,7.20
2018-02-11T17:26:48.893Z,7.20
2018-02-11T17:29:17.906Z,7.20
2018-02-11T17:31:46.910Z,7.30
2018-02-11T17:34:15.953Z,7.20
2018-02-11T17:36:45.030Z,7.10
2018-02-11T17:39:14.034Z,7.20
2018-02-11T17:41:43.033Z,7.10
2018-02-11T17:44:12.093Z,7.10
2018-02-11T17:46:41.103Z,7.00
2018-02-11T17:49:10.102Z,6.90
2018-02-11T17:51:39.134Z,6.80
2018-02-11T17:54:08.210Z,6.80
2018-02-11T17:56:37.969Z,6.70
2018-02-11T17:59:07.004Z,6.60
2018-02-11T18:01:36.012Z,6.60
2018-02-11T18:04:05.819Z,6.50
2018-02-11T18:06:35.585Z,6.50
2018-02-11T18:09:04.610Z,6.40
2018-02-11T18:11:33.652Z,6.40
2018-02-11T18:14:02.653Z,6.30
2018-02-11T18:16:31.694Z,6.40
2018-02-11T18:19:01.468Z,6.50
2018-02-11T18:21:30.909Z,6.50
2018-02-11T18:23:59.919Z,6.50
2018-02-11T18:26:29.695Z,6.60
2018-02-11T18:28:58.744Z,6.50
2018-02-11T18:31:27.749Z,6.60
2018-02-11T18:33:56.783Z,6.60
2018-02-11T18:36:25.812Z,6.60
2018-02-11T18:38:54.821Z,6.60
2018-02-11T18:41:23.968Z,6.60
2018-02-11T18:43:52.970Z,6.60
2018-02-11T18:46:21.975Z,6.50
2018-02-11T18:48:51.028Z,6.50
2018-02-11T18:51:20.031Z,6.50
2018-02-11T18:53:49.025Z,6.50
2018-02-11T18:56:18.055Z,6.50
2018-02-11T18:58:47.066Z,6.50
2018-02-11T19:01:16.101Z,6.40
2018-02-11T19:03:45.092Z,6.40
2018-02-11T19:06:14.328Z,6.50
2018-02-11T19:08:44.088Z,6.50
2018-02-11T19:11:13.098Z,6.50
2018-02-11T19:13:42.134Z,6.50
2018-02-11T19:16:11.142Z,6.60
2018-02-11T19:18:40.182Z,6.60
2018-02-11T19:21:09.186Z,6.60
2018-02-11T19:23:38.236Z,6.60
2018-02-11T19:26:07.227Z,6.40
2018-02-11T19:28:36.224Z,6.40
2018-02-11T19:31:05.280Z,6.40
2018-02-11T19:33:35.061Z,6.40
2018-02-11T19:36:04.109Z,6.40
2018-02-11T19:38:33.994Z,6.50
2018-02-11T19:41:03.775Z,6.50
2018-02-11T19:43:32.826Z,6.50
2018-02-11T19:46:01.907Z,6.50
2018-02-11T19:48:30.903Z,6.50
2018-02-11T19:50:59.914Z,6.60
2018-02-11T19:53:28.989Z,6.60
2018-02-11T19:55:58.078Z,6.60
2018-02-11T19:58:27.048Z,6.60
2018-02-11T20:00:56.087Z,6.60
2018-02-11T20:03:25.141Z,6.60
2018-02-11T20:05:54.145Z,6.60
2018-02-11T20:08:23.900Z,6.70
2018-02-11T20:10:52.953Z,6.60
2018-02-11T20:13:22.720Z,6.60
2018-02-11T20:15:51.725Z,6.50
2018-02-11T20:18:20.778Z,6.60
2018-02-11T20:20:49.778Z,6.50
2018-02-11T20:23:18.778Z,6.30
2018-02-11T20:25:47.841Z,6.20
2018-02-11T20:28:16.855Z,6.20
2018-02-11T20:30:45.882Z,6.20
2018-02-11T20:33:14.893Z,6.20
2018-02-11T20:35:43.929Z,6.20
2018-02-11T20:38:12.932Z,6.20
2018-02-11T20:40:41.992Z,6.20
2018-02-11T20:43:11.012Z,6.10
2018-02-11T20:45:40.010Z,6.20
2018-02-11T20:48:09.136Z,6.20
2018-02-11T20:50:38.132Z,6.20
2018-02-11T20:53:07.142Z,6.30
2018-02-11T20:55:36.184Z,6.30
2018-02-11T20:58:05.190Z,6.20
2018-02-11T21:00:34.262Z,6.10
2018-02-11T21:03:03.265Z,6.10
2018-02-11T21:05:32.260Z,6.10
2018-02-11T21:08:01.315Z,5.90
2018-02-11T21:10:31.086Z,5.80
2018-02-11T21:13:00.172Z,5.80
2018-02-11T21:15:29.138Z,5.70
2018-02-11T21:17:58.245Z,5.80
2018-02-11T21:20:27.259Z,5.80
2018-02-11T21:22:56.261Z,5.70
2018-02-11T21:25:25.307Z,5.70
2018-02-11T21:27:54.301Z,5.80
2018-02-11T21:30:23.067Z,5.80
2018-02-11T21:32:51.833Z,5.80
2018-02-11T21:35:21.329Z,5.90
2018-02-11T21:37:50.869Z,5.90
2018-02-11T21:40:19.605Z,5.90
2018-02-11T21:42:48.604Z,5.90
2018-02-11T21:45:17.649Z,5.90
2018-02-11T21:47:47.408Z,5.90
2018-02-11T21:50:16.448Z,5.90
2018-02-11T21:52:46.213Z,5.90
2018-02-11T21:55:15.239Z,5.80
2018-02-11T21:57:45.014Z,5.90
2018-02-11T22:00:14.062Z,5.90
2018-02-11T22:02:43.081Z,5.90
2018-02-11T22:05:12.118Z,6.00
2018-02-11T22:07:41.118Z,6.00
2018-02-11T22:10:10.148Z,6.00
2018-02-11T22:12:39.197Z,6.00
2018-02-11T22:15:08.192Z,5.90
2018-02-11T22:17:37.245Z,6.00
2018-02-11T22:20:06.251Z,6.00
2018-02-11T22:22:35.257Z,6.00
2018-02-11T22:25:04.294Z,6.00
2018-02-11T22:27:34.065Z,5.80
2018-02-11T22:30:03.096Z,5.80
2018-02-11T22:32:32.117Z,5.80
2018-02-11T22:35:01.162Z,5.90
2018-02-11T22:37:30.939Z,5.80
2018-02-11T22:39:59.968Z,5.70
2018-02-11T22:42:29.753Z,5.80
2018-02-11T22:44:58.797Z,5.80
2018-02-11T22:47:27.883Z,5.70
2018-02-11T22:49:57.785Z,5.70
2018-02-11T22:52:27.557Z,5.70
2018-02-11T22:54:56.565Z,5.60
2018-02-11T22:57:25.595Z,5.70
2018-02-11T22:59:55.412Z,5.80
2018-02-11T23:02:25.168Z,5.70
2018-02-11T23:04:54.213Z,5.70
2018-02-11T23:07:23.978Z,5.70
2018-02-11T23:09:53.034Z,5.70
2018-02-11T23:12:22.054Z,5.80
2018-02-11T23:14:51.061Z,5.70
2018-02-11T23:17:20.120Z,5.70
2018-02-11T23:19:51.955Z,5.60
2018-02-11T23:22:21.769Z,5.60
2018-02-11T23:24:51.532Z,5.60
2018-02-11T23:27:20.542Z,5.50
2018-02-11T23:29:49.588Z,5.50
2018-02-11T23:32:18.620Z,5.50
2018-02-11T23:34:47.631Z,5.40
2018-02-11T23:37:16.677Z,5.30
2018-02-11T23:39:45.676Z,5.30
2018-02-11T23:42:14.748Z,5.10
2018-02-11T23:44:43.757Z,5.10
2018-02-11T23:47:12.760Z,5.00
2018-02-11T23:49:41.800Z,5.00
2018-02-11T23:52:11.577Z,4.80
2018-02-11T23:54:40.587Z,4.80
2018-02-11T23:57:09.624Z,4.70
2018-02-11T23:59:38.652Z,4.60
